createdAt,value
2018-10-05T00:00:08.506Z,17.20
2018-10-05T00:02:37.790Z,17.03
2018-10-05T00:05:06.711Z,14.33
2018-10-05T00:07:35.607Z,16.40
2018-10-05T00:10:04.882Z,21.67
2018-10-05T00:12:33.780Z,14.10
2018-10-05T00:15:11.232Z,15.90
2018-10-05T00:17:40.120Z,18.27
2018-10-05T00:20:08.962Z,19.77
2018-10-05T00:22:37.778Z,18.10
2018-10-05T00:25:06.587Z,19.23
2018-10-05T00:27:35.382Z,16.70
2018-10-05T00:30:04.271Z,19.27
2018-10-05T00:32:33.166Z,14.80
2018-10-05T00:35:01.882Z,22.73
2018-10-05T00:37:30.909Z,19.07
2018-10-05T00:39:59.636Z,19.37
2018-10-05T00:42:28.476Z,19.30
2018-10-05T00:44:57.297Z,18.67
2018-10-05T00:47:26.138Z,20.07
2018-10-05T00:49:55.344Z,20.60
2018-10-05T00:52:24.374Z,16.60
2018-10-05T00:54:53.386Z,16.60
2018-10-05T00:57:22.249Z,15.63
2018-10-05T00:59:51.341Z,21.20
2018-10-05T01:02:20.281Z,15.70
2018-10-05T01:04:49.158Z,22.47
2018-10-05T01:07:17.945Z,18.27
2018-10-05T01:09:46.854Z,21.23
2018-10-05T01:12:15.823Z,21.70
2018-10-05T01:14:46.596Z,19.13
2018-10-05T01:17:16.028Z,21.17
2018-10-05T01:19:44.929Z,19.70
2018-10-05T01:22:13.687Z,20.23
2018-10-05T01:24:42.533Z,20.30
2018-10-05T01:27:11.328Z,25.27
2018-10-05T01:29:40.215Z,25.60
2018-10-05T01:32:09.184Z,26.93
2018-10-05T01:34:38.003Z,19.33
2018-10-05T01:37:06.878Z,27.20
2018-10-05T01:39:35.742Z,29.17
2018-10-05T01:42:04.478Z,29.00
2018-10-05T01:44:33.232Z,27.20
2018-10-05T01:47:02.116Z,28.80
2018-10-05T01:49:31.039Z,25.30
2018-10-05T01:51:59.951Z,23.87
2018-10-05T01:54:29.161Z,30.13
2018-10-05T01:57:02.722Z,22.00
2018-10-05T01:59:31.629Z,23.50
2018-10-05T02:02:00.421Z,28.03
2018-10-05T02:04:29.311Z,28.23
2018-10-05T02:06:58.118Z,28.47
2018-10-05T02:09:26.954Z,31.80
2018-10-05T02:11:55.813Z,19.37
2018-10-05T02:14:24.705Z,29.87
2018-10-05T02:16:53.494Z,24.70
2018-10-05T02:19:22.386Z,28.17
2018-10-05T02:21:51.180Z,30.33
2018-10-05T02:24:20.052Z,37.47
2018-10-05T02:26:48.926Z,39.07
2018-10-05T02:29:17.761Z,34.37
2018-10-05T02:31:46.576Z,29.77
2018-10-05T02:34:15.431Z,29.37
2018-10-05T02:36:44.329Z,30.13
2018-10-05T02:39:14.157Z,33.10
2018-10-05T02:41:43.525Z,60.63
2018-10-05T02:44:12.327Z,29.40
2018-10-05T02:46:41.077Z,28.10
2018-10-05T02:49:09.936Z,31.43
2018-10-05T02:51:38.828Z,35.77
2018-10-05T02:54:07.785Z,25.70
2018-10-05T02:56:36.697Z,31.90
2018-10-05T02:59:05.914Z,34.40
2018-10-05T03:01:45.781Z,28.20
2018-10-05T03:04:14.626Z,32.77
2018-10-05T03:06:43.374Z,44.37
2018-10-05T03:09:12.257Z,28.10
2018-10-05T03:11:41.153Z,26.87
2018-10-05T03:14:10.356Z,29.00
2018-10-05T03:16:39.298Z,29.33
2018-10-05T03:19:08.168Z,22.77
2018-10-05T03:21:37.075Z,40.70
2018-10-05T03:24:05.931Z,31.93
2018-10-05T03:26:34.806Z,29.27
2018-10-05T03:29:03.644Z,27.40
2018-10-05T03:31:32.450Z,25.33
2018-10-05T03:34:01.225Z,29.67
2018-10-05T03:36:30.375Z,30.20
2018-10-05T03:38:59.212Z,36.10
2018-10-05T03:41:28.042Z,41.17
2018-10-05T03:46:47.710Z,27.53
2018-10-05T03:49:16.504Z,35.03
2018-10-05T03:51:45.311Z,30.90
2018-10-05T03:54:14.379Z,27.83
2018-10-05T03:56:43.211Z,45.43
2018-10-05T03:59:12.338Z,25.03
2018-10-05T04:01:41.192Z,28.13
2018-10-05T04:04:10.128Z,26.43
2018-10-05T04:06:39.445Z,29.83
2018-10-05T04:09:10.381Z,27.17
2018-10-05T04:11:39.363Z,28.87
2018-10-05T04:14:08.526Z,28.30
2018-10-05T04:16:37.435Z,49.53
2018-10-05T04:19:06.318Z,31.70
2018-10-05T04:21:35.262Z,26.43
2018-10-05T04:24:04.152Z,30.73
2018-10-05T04:26:33.066Z,28.50
2018-10-05T04:29:01.944Z,44.00
2018-10-05T04:31:30.760Z,28.57
2018-10-05T04:33:59.630Z,37.00
2018-10-05T04:36:28.887Z,29.70
2018-10-05T04:38:57.731Z,27.70
2018-10-05T04:41:26.676Z,26.37
2018-10-05T04:43:56.061Z,22.40
2018-10-05T04:46:25.067Z,33.40
2018-10-05T04:48:54.020Z,23.57
2018-10-05T04:51:22.894Z,24.60
2018-10-05T04:53:51.805Z,29.43
2018-10-05T04:56:20.697Z,47.23
2018-10-05T04:58:49.500Z,31.77
2018-10-05T05:01:19.735Z,26.77
2018-10-05T05:03:48.646Z,33.67
2018-10-05T05:06:17.474Z,33.43
2018-10-05T05:08:46.393Z,25.13
2018-10-05T05:11:15.763Z,28.07
2018-10-05T05:13:44.613Z,25.83
2018-10-05T05:16:13.424Z,34.17
2018-10-05T05:18:44.123Z,28.90
2018-10-05T05:21:13.037Z,38.83
2018-10-05T05:23:41.880Z,30.30
2018-10-05T05:26:10.732Z,31.23
2018-10-05T05:28:39.605Z,35.27
2018-10-05T05:31:08.339Z,25.50
2018-10-05T05:33:37.307Z,21.87
2018-10-05T05:36:06.491Z,21.80
2018-10-05T05:38:35.621Z,31.60
2018-10-05T05:41:04.410Z,25.87
2018-10-05T05:43:33.283Z,28.40
2018-10-05T05:46:02.041Z,37.27
2018-10-05T05:48:31.203Z,24.50
2018-10-05T05:51:00.155Z,23.30
2018-10-05T05:53:29.066Z,21.10
2018-10-05T05:55:57.904Z,26.17
2018-10-05T05:58:26.699Z,20.93
2018-10-05T06:00:55.646Z,19.30
2018-10-05T06:03:24.470Z,22.03
2018-10-05T06:05:53.459Z,25.40
2018-10-05T06:08:22.256Z,18.67
2018-10-05T06:10:51.130Z,21.00
2018-10-05T06:13:20.029Z,18.90
2018-10-05T06:15:48.951Z,21.40
2018-10-05T06:18:17.909Z,16.07
2018-10-05T06:20:47.250Z,17.23
2018-10-05T06:23:16.216Z,15.27
2018-10-05T06:25:45.066Z,15.70
2018-10-05T06:28:16.765Z,14.93
2018-10-05T06:30:48.611Z,17.93
2018-10-05T06:33:17.779Z,16.07
2018-10-05T06:35:46.785Z,13.63
2018-10-05T06:38:15.760Z,15.00
2018-10-05T06:40:44.696Z,15.97
2018-10-05T06:43:13.730Z,16.67
2018-10-05T06:45:42.641Z,14.93
2018-10-05T06:48:11.649Z,16.87
2018-10-05T06:50:40.556Z,15.20
2018-10-05T06:53:12.674Z,13.70
2018-10-05T06:55:41.525Z,12.47
2018-10-05T06:58:11.308Z,15.53
2018-10-05T07:00:43.153Z,16.03
2018-10-05T07:03:11.981Z,18.43
2018-10-05T07:05:41.702Z,12.93
2018-10-05T07:08:12.490Z,14.80
2018-10-05T07:10:41.468Z,13.77
2018-10-05T07:13:10.943Z,15.80
2018-10-05T07:15:41.642Z,11.20
2018-10-05T07:18:10.637Z,17.77
2018-10-05T07:20:39.937Z,12.67
2018-10-05T07:23:11.201Z,15.43
2018-10-05T07:25:46.319Z,14.83
2018-10-05T07:28:15.295Z,11.57
2018-10-05T07:30:54.222Z,14.27
2018-10-05T07:33:23.306Z,14.47
2018-10-05T07:35:52.792Z,15.30
2018-10-05T07:38:21.718Z,13.90
2018-10-05T07:40:50.594Z,15.10
2018-10-05T07:43:19.592Z,17.30
2018-10-05T07:45:48.590Z,14.80
2018-10-05T07:48:17.425Z,14.00
2018-10-05T07:50:46.325Z,13.57
2018-10-05T07:53:15.332Z,12.83
2018-10-05T07:55:44.186Z,13.13
2018-10-05T07:58:15.063Z,11.13
2018-10-05T08:00:44.681Z,13.37
2018-10-05T08:03:13.645Z,14.80
2018-10-05T08:05:42.617Z,16.83
2018-10-05T08:08:11.601Z,14.17
2018-10-05T08:10:40.599Z,18.37
2018-10-05T08:13:09.589Z,12.03
2018-10-05T08:15:40.267Z,18.67
2018-10-05T08:18:09.307Z,14.63
2018-10-05T08:20:38.932Z,18.50
2018-10-05T08:23:07.873Z,17.17
2018-10-05T08:25:36.782Z,19.50
2018-10-05T08:28:05.652Z,16.50
2018-10-05T08:30:34.567Z,13.27
2018-10-05T08:33:03.538Z,16.33
2018-10-05T08:35:32.658Z,15.33
2018-10-05T08:38:02.577Z,17.90
2018-10-05T08:40:31.726Z,18.97
2018-10-05T08:43:01.189Z,14.33
2018-10-05T08:45:30.671Z,11.17
2018-10-05T08:47:59.673Z,17.07
2018-10-05T08:50:28.615Z,14.77
2018-10-05T08:52:58.618Z,14.00
2018-10-05T08:55:29.081Z,15.37
2018-10-05T08:57:58.090Z,18.67
2018-10-05T09:00:27.221Z,16.97
2018-10-05T09:02:55.978Z,13.90
2018-10-05T09:05:25.047Z,11.80
2018-10-05T09:07:54.727Z,14.50
2018-10-05T09:10:23.595Z,14.63
2018-10-05T09:12:52.449Z,17.10
2018-10-05T09:15:27.238Z,23.03
2018-10-05T09:17:57.551Z,14.87
2018-10-05T09:20:27.855Z,14.07
2018-10-05T09:22:57.057Z,20.23
2018-10-05T09:25:31.579Z,16.63
2018-10-05T09:28:01.983Z,12.43
2018-10-05T09:30:31.295Z,12.23
2018-10-05T09:33:00.849Z,12.97
2018-10-05T09:35:32.817Z,12.33
2018-10-05T09:38:05.302Z,12.70
2018-10-05T09:40:34.641Z,21.97
2018-10-05T09:43:05.931Z,17.53
2018-10-05T09:45:36.060Z,15.10
2018-10-05T09:48:08.110Z,14.77
2018-10-05T09:50:37.709Z,15.97
2018-10-05T09:53:07.567Z,14.33
2018-10-05T09:55:36.486Z,17.67
2018-10-05T09:58:06.456Z,15.27
2018-10-05T10:00:40.723Z,16.43
2018-10-05T10:03:14.764Z,14.63
2018-10-05T10:05:43.726Z,9.43
2018-10-05T10:11:04.273Z,13.83
2018-10-05T10:13:33.385Z,20.50
2018-10-05T10:16:02.617Z,15.43
2018-10-05T10:18:31.645Z,19.73
2018-10-05T10:21:00.772Z,15.97
2018-10-05T10:23:29.535Z,16.80
2018-10-05T10:25:58.350Z,19.60
2018-10-05T10:28:28.331Z,21.83
2018-10-05T10:30:59.802Z,20.10
2018-10-05T10:33:31.313Z,16.13
2018-10-05T10:36:00.981Z,17.73
2018-10-05T10:38:29.929Z,12.83
2018-10-05T10:41:03.018Z,14.70
2018-10-05T10:43:33.092Z,14.90
2018-10-05T10:46:02.454Z,12.03
2018-10-05T10:48:31.447Z,15.93
2018-10-05T10:51:01.373Z,14.07
2018-10-05T10:53:31.780Z,14.97
2018-10-05T10:56:01.652Z,12.43
2018-10-05T10:58:31.609Z,16.40
2018-10-05T11:01:04.667Z,19.90
2018-10-05T11:03:34.093Z,11.67
2018-10-05T11:06:03.385Z,14.13
2018-10-05T11:08:32.595Z,15.67
2018-10-05T11:11:01.557Z,13.60
2018-10-05T11:13:30.425Z,15.97
2018-10-05T11:15:59.857Z,15.33
2018-10-05T11:18:35.808Z,17.30
2018-10-05T11:21:06.440Z,10.93
2018-10-05T11:23:37.901Z,9.83
2018-10-05T11:26:09.025Z,12.70
2018-10-05T11:28:38.293Z,14.13
2018-10-05T11:31:07.582Z,18.97
2018-10-05T11:33:36.387Z,14.10
2018-10-05T11:36:05.200Z,12.80
2018-10-05T11:38:34.176Z,15.77
2018-10-05T11:41:03.188Z,14.03
2018-10-05T11:43:32.041Z,14.53
2018-10-05T11:46:01.159Z,15.93
2018-10-05T11:48:30.003Z,12.90
2018-10-05T11:50:58.892Z,9.47
2018-10-05T11:53:27.835Z,12.57
2018-10-05T11:55:56.629Z,11.83
2018-10-05T11:58:25.562Z,16.60
2018-10-05T12:00:54.728Z,12.80
2018-10-05T12:03:23.573Z,13.57
2018-10-05T12:05:52.648Z,10.77
2018-10-05T12:08:22.456Z,11.07
2018-10-05T12:10:52.165Z,12.93
2018-10-05T12:13:21.368Z,19.23
2018-10-05T12:15:51.721Z,13.03
2018-10-05T12:18:21.466Z,14.47
2018-10-05T12:20:50.356Z,13.80
2018-10-05T12:23:19.350Z,11.87
2018-10-05T12:25:48.294Z,11.90
2018-10-05T12:28:17.153Z,11.10
2018-10-05T12:30:46.038Z,8.83
2018-10-05T12:33:14.886Z,11.80
2018-10-05T12:35:43.677Z,8.83
2018-10-05T12:38:12.762Z,10.30
2018-10-05T12:40:43.453Z,15.60
2018-10-05T12:43:13.017Z,13.27
2018-10-05T12:45:42.570Z,10.83
2018-10-05T12:48:14.754Z,9.33
2018-10-05T12:50:44.301Z,11.90
2018-10-05T12:53:13.222Z,10.00
2018-10-05T12:55:43.583Z,10.23
2018-10-05T12:58:12.551Z,9.80
2018-10-05T13:00:42.504Z,13.07
2018-10-05T13:03:11.510Z,14.97
2018-10-05T13:05:40.395Z,10.80
2018-10-05T13:08:09.862Z,9.43
2018-10-05T13:10:40.837Z,14.27
2018-10-05T13:13:10.882Z,12.50
2018-10-05T13:15:39.973Z,9.20
2018-10-05T13:18:09.451Z,8.23
2018-10-05T13:20:38.767Z,7.33
2018-10-05T13:23:07.922Z,12.23
2018-10-05T13:25:36.731Z,6.60
2018-10-05T13:28:05.923Z,7.57
2018-10-05T13:30:34.820Z,9.40
2018-10-05T13:33:03.760Z,9.27
2018-10-05T13:35:32.608Z,12.40
2018-10-05T13:38:01.951Z,8.27
2018-10-05T13:40:31.062Z,11.33
2018-10-05T13:42:59.814Z,9.57
2018-10-05T13:45:29.165Z,6.20
2018-10-05T13:47:58.187Z,9.60
2018-10-05T13:50:27.153Z,10.37
2018-10-05T13:52:56.280Z,8.87
2018-10-05T13:55:25.134Z,6.83
2018-10-05T13:57:53.991Z,7.40
2018-10-05T14:00:25.465Z,7.63
2018-10-05T14:02:54.554Z,6.67
2018-10-05T14:05:23.521Z,11.00
2018-10-05T14:07:52.423Z,7.83
2018-10-05T14:10:21.321Z,6.77
2018-10-05T14:12:50.230Z,6.27
2018-10-05T14:15:19.199Z,8.00
2018-10-05T14:17:48.069Z,11.13
2018-10-05T14:20:17.080Z,8.97
2018-10-05T14:22:46.077Z,7.90
2018-10-05T14:25:15.057Z,7.23
2018-10-05T14:27:43.890Z,11.13
2018-10-05T14:30:12.848Z,4.40
2018-10-05T14:32:41.788Z,6.00
2018-10-05T14:35:10.863Z,11.67
2018-10-05T14:37:39.847Z,5.67
2018-10-05T14:40:08.880Z,4.73
2018-10-05T14:42:38.227Z,9.33
2018-10-05T14:45:07.631Z,7.53
2018-10-05T14:47:37.197Z,7.17
2018-10-05T14:50:06.960Z,5.47
2018-10-05T14:52:36.803Z,7.20
2018-10-05T14:55:07.834Z,6.70
2018-10-05T14:57:36.853Z,7.43
2018-10-05T15:00:06.424Z,5.93
2018-10-05T15:02:36.038Z,3.17
2018-10-05T15:05:05.091Z,6.50
2018-10-05T15:07:34.883Z,7.10
2018-10-05T15:10:07.719Z,5.40
2018-10-05T15:12:37.011Z,6.07
2018-10-05T15:15:07.515Z,2.90
2018-10-05T15:17:39.108Z,6.60
2018-10-05T15:20:09.601Z,4.20
2018-10-05T15:22:39.914Z,6.17
2018-10-05T15:25:14.533Z,5.53
2018-10-05T15:27:44.090Z,5.87
2018-10-05T15:30:15.750Z,4.30
2018-10-05T15:32:46.691Z,9.97
2018-10-05T15:35:16.291Z,5.23
2018-10-05T15:37:45.244Z,5.97
2018-10-05T15:40:17.388Z,5.10
2018-10-05T15:42:47.380Z,10.43
2018-10-05T15:45:19.486Z,4.90
2018-10-05T15:47:48.452Z,6.20
2018-10-05T15:50:17.368Z,6.37
2018-10-05T15:52:49.890Z,8.87
2018-10-05T15:55:20.019Z,9.10
2018-10-05T15:57:52.745Z,18.37
2018-10-05T16:00:26.635Z,23.67
2018-10-05T16:02:55.767Z,47.83
2018-10-05T16:05:27.008Z,40.50
2018-10-05T16:07:58.450Z,35.23
2018-10-05T16:10:27.441Z,39.70
2018-10-05T16:12:59.145Z,32.50
2018-10-05T16:15:28.135Z,9.57
2018-10-05T16:17:57.073Z,9.67
2018-10-05T16:20:26.053Z,10.20
2018-10-05T16:22:54.935Z,7.70
2018-10-05T16:25:23.878Z,7.17
2018-10-05T16:27:52.780Z,9.07
2018-10-05T16:30:21.707Z,8.57
2018-10-05T16:32:50.922Z,7.63
2018-10-05T16:35:19.903Z,7.33
2018-10-05T16:37:49.704Z,7.10
2018-10-05T16:40:19.427Z,12.77
2018-10-05T16:42:48.526Z,12.73
2018-10-05T16:45:18.816Z,13.67
2018-10-05T16:47:48.120Z,10.70
2018-10-05T16:50:17.570Z,24.13
2018-10-05T16:52:46.428Z,12.10
2018-10-05T16:55:15.326Z,9.77
2018-10-05T16:57:44.153Z,13.27
2018-10-05T17:00:20.743Z,14.53
2018-10-05T17:02:50.163Z,18.20
2018-10-05T17:05:21.097Z,11.60
2018-10-05T17:07:51.257Z,14.73
2018-10-05T17:10:23.278Z,14.30
2018-10-05T17:12:54.517Z,12.07
2018-10-05T17:15:28.683Z,9.63
2018-10-05T17:17:57.734Z,12.93
2018-10-05T17:20:27.703Z,12.10
2018-10-05T17:22:56.944Z,15.70
2018-10-05T17:25:26.337Z,12.83
2018-10-05T17:27:56.222Z,14.57
2018-10-05T17:30:25.846Z,18.03
2018-10-05T17:32:55.954Z,11.70
2018-10-05T17:35:25.067Z,22.33
2018-10-05T17:37:53.949Z,18.27
2018-10-05T17:40:23.757Z,23.57
2018-10-05T17:42:53.901Z,17.53
2018-10-05T17:45:23.266Z,16.63
2018-10-05T17:47:52.467Z,16.73
2018-10-05T17:50:21.675Z,14.23
2018-10-05T17:52:50.687Z,16.43
2018-10-05T17:55:20.714Z,22.37
2018-10-05T17:57:49.630Z,19.37
2018-10-05T18:00:18.649Z,18.23
2018-10-05T18:02:48.137Z,12.20
2018-10-05T18:05:19.041Z,10.83
2018-10-05T18:07:53.212Z,19.77
2018-10-05T18:10:22.442Z,14.17
2018-10-05T18:12:55.660Z,17.37
2018-10-05T18:15:29.807Z,19.50
2018-10-05T18:18:01.370Z,36.60
2018-10-05T18:20:30.438Z,45.87
2018-10-05T18:23:01.070Z,30.23
2018-10-05T18:25:30.756Z,27.90
2018-10-05T18:27:59.982Z,25.30
2018-10-05T18:30:30.978Z,26.13
2018-10-05T18:33:00.960Z,26.63
2018-10-05T18:35:30.475Z,29.17
2018-10-05T18:37:59.589Z,24.77
2018-10-05T18:40:33.857Z,26.87
2018-10-05T18:43:03.722Z,29.97
2018-10-05T18:45:33.974Z,26.70
2018-10-05T18:48:04.824Z,22.87
2018-10-05T18:50:33.965Z,25.57
2018-10-05T19:01:34.541Z,32.30
2018-10-05T19:04:03.981Z,35.97
2018-10-05T19:06:41.617Z,35.60
2018-10-05T19:09:10.755Z,57.43
2018-10-05T19:11:41.845Z,56.23
2018-10-05T19:14:10.810Z,51.57
2018-10-05T19:16:39.699Z,38.00
2018-10-05T19:19:08.727Z,32.63
2018-10-05T19:21:37.610Z,32.93
2018-10-05T19:24:06.759Z,25.40
2018-10-05T19:26:36.247Z,18.33
2018-10-05T19:29:05.578Z,24.40
2018-10-05T19:31:34.484Z,19.37
2018-10-05T19:34:05.052Z,29.20
2018-10-05T19:36:34.086Z,15.87
2018-10-05T19:39:03.703Z,23.50
2018-10-05T19:41:32.515Z,18.00
2018-10-05T19:46:52.884Z,18.50
2018-10-05T19:49:21.955Z,24.77
2018-10-05T19:51:51.829Z,16.00
2018-10-05T19:54:21.900Z,28.67
2018-10-05T19:56:57.280Z,17.13
2018-10-05T19:59:26.169Z,26.23
2018-10-05T20:01:56.883Z,16.97
2018-10-05T20:04:30.548Z,15.33
2018-10-05T20:07:03.250Z,17.83
2018-10-05T20:09:32.280Z,20.90
2018-10-05T20:12:04.239Z,20.30
2018-10-05T20:14:35.148Z,20.00
2018-10-05T20:17:04.304Z,16.17
2018-10-05T20:19:35.211Z,14.53
2018-10-05T20:22:04.491Z,16.07
2018-10-05T20:24:34.757Z,22.97
2018-10-05T20:27:04.421Z,17.57
2018-10-05T20:29:33.275Z,12.70
2018-10-05T20:32:02.806Z,13.77
2018-10-05T20:34:32.886Z,19.47
2018-10-05T20:37:02.139Z,15.57
2018-10-05T20:39:33.792Z,16.13
2018-10-05T20:42:02.818Z,18.47
2018-10-05T20:44:31.957Z,19.53
2018-10-05T20:47:04.190Z,15.27
2018-10-05T20:49:35.986Z,16.53
2018-10-05T20:52:10.713Z,15.17
2018-10-05T20:54:40.540Z,15.00
2018-10-05T20:57:13.993Z,10.90
2018-10-05T20:59:46.415Z,16.60
2018-10-05T21:02:15.247Z,18.20
2018-10-05T21:04:44.091Z,14.47
2018-10-05T21:07:12.955Z,19.20
2018-10-05T21:09:42.060Z,17.23
2018-10-05T21:12:10.897Z,18.47
2018-10-05T21:14:39.944Z,14.43
2018-10-05T21:17:08.889Z,15.80
2018-10-05T21:19:37.864Z,16.53
2018-10-05T21:22:06.913Z,12.73
2018-10-05T21:24:36.230Z,18.47
2018-10-05T21:27:05.771Z,21.13
2018-10-05T21:29:34.924Z,21.57
2018-10-05T21:32:04.254Z,24.33
2018-10-05T21:34:34.538Z,21.63
2018-10-05T21:37:05.600Z,22.37
2018-10-05T21:42:25.053Z,26.97
2018-10-05T21:44:54.739Z,20.53
2018-10-05T21:47:23.700Z,23.70
2018-10-05T21:49:54.803Z,23.17
2018-10-05T21:52:26.846Z,20.47
2018-10-05T21:54:56.550Z,21.77
2018-10-05T21:57:25.529Z,19.87
2018-10-05T21:59:56.626Z,19.03
2018-10-05T22:02:29.603Z,18.70
2018-10-05T22:04:58.813Z,19.03
2018-10-05T22:07:28.890Z,21.93
2018-10-05T22:10:00.458Z,17.97
2018-10-05T22:12:30.157Z,21.83
2018-10-05T22:15:00.900Z,19.67
2018-10-05T22:17:30.048Z,20.40
2018-10-05T22:19:58.892Z,17.57
2018-10-05T22:22:29.958Z,23.50
2018-10-05T22:24:58.884Z,16.23
2018-10-05T22:27:29.340Z,20.47
2018-10-05T22:29:58.212Z,16.27
2018-10-05T22:32:28.112Z,16.40
2018-10-05T22:34:57.931Z,19.20
2018-10-05T22:37:27.315Z,18.07
2018-10-05T22:39:56.367Z,15.60
2018-10-05T22:42:25.226Z,17.97
2018-10-05T22:44:54.883Z,18.67
2018-10-05T22:47:23.907Z,20.67
2018-10-05T22:49:52.759Z,29.23
2018-10-05T22:52:21.838Z,23.63
2018-10-05T22:54:50.728Z,19.07
2018-10-05T22:57:20.531Z,14.10
2018-10-05T22:59:49.522Z,19.00
2018-10-05T23:02:18.563Z,17.87
2018-10-05T23:04:47.927Z,17.80
2018-10-05T23:07:16.881Z,15.13
2018-10-05T23:09:45.736Z,19.50
2018-10-05T23:12:14.566Z,21.27
2018-10-05T23:14:45.347Z,19.70
2018-10-05T23:17:14.273Z,18.17
2018-10-05T23:19:42.988Z,19.13
2018-10-05T23:22:11.853Z,16.70
2018-10-05T23:24:40.699Z,14.27
2018-10-05T23:27:09.536Z,20.90
2018-10-05T23:29:38.395Z,21.60
2018-10-05T23:32:07.191Z,15.70
2018-10-05T23:34:36.171Z,16.90
2018-10-05T23:37:05.411Z,22.00
2018-10-05T23:39:34.434Z,20.47
2018-10-05T23:42:03.210Z,18.77
2018-10-05T23:44:32.180Z,24.13
2018-10-05T23:47:00.901Z,20.60
2018-10-05T23:49:29.704Z,23.17
2018-10-05T23:52:00.219Z,18.83
2018-10-05T23:54:29.054Z,18.77
2018-10-05T23:56:57.907Z,16.53
2018-10-05T23:59:27.019Z,16.40
